Sant Martí Sacalm





Hora UTC 07:55
Temperatura 21.7 ºC
Humedad 64.1 %
Presión 1022.9 hPa
Pluja 0.0 mm
Velocidad viento 6.2 km/h
Dirección viento SW
Radiación solar 595.6 W/m²

Datos diarios 2022-07-07



Hora UTC (invierno +1h; verano +2h)
Temperatura (ºC) Humedad (%) Presión (hPa) Velocidad viento (km/h) Precipitación (mm) Radiación solar (W/m²)
Hora UTC Aire Humedad Presión Vel. Dir. Vel. Max Dir. Intent. máx 5 min. Rad. Sol.
00:05 19.4 71.2 1022.3 5.8 WSW 5.8 WSW 0.0 0.1
00:10 19.1 74.7 1022.3 5.8 WSW 8.5 WSW 0.0 0.1
00:15 19.1 75.6 1022.3 5.0 SW 6.0 SW 0.0 0.1
00:20 19.1 75.9 1022.3 4.6 SW 6.0 WSW 0.0 0.1
00:25 19.0 75.9 1022.3 5.1 SSW 7.1 S 0.0 0.1
00:30 18.9 76.5 1022.2 6.0 S 7.1 S 0.0 0.1
00:35 19.0 74.8 1022.2 6.6 SSW 7.4 SW 0.0 0.1
00:40 18.9 75.8 1022.3 7.8 SW 9.2 WSW 0.0 0.1
00:45 18.9 74.6 1022.3 7.8 SW 8.5 SW 0.0 0.1
00:50 18.8 75.5 1022.3 7.9 SW 9.2 SW 0.0 0.1
00:55 18.8 75.3 1022.2 9.1 SW 10.3 WSW 0.0 0.1
01:00 18.7 76.4 1022.2 8.7 SW 10.3 SW 0.0 0.1
01:05 18.4 77.9 1022.3 8.4 SSW 10.3 SW 0.0 0.1
01:10 18.2 79.4 1022.3 9.8 SSW 12.4 SW 0.0 0.1
01:15 18.1 80.2 1022.2 9.4 SW 12.7 SSW 0.0 0.1
01:20 17.9 81.5 1022.3 8.8 SW 11.0 SSW 0.0 0.1
01:25 17.6 83.6 1022.3 9.2 SW 11.3 SW 0.0 0.1
01:30 17.6 84.1 1022.3 8.4 SW 10.6 SW 0.0 0.1
01:35 17.8 82.7 1022.2 7.3 SW 9.5 SW 0.0 0.1
01:40 18.1 80.0 1022.2 7.4 SW 10.3 SW 0.0 0.1
01:45 18.1 80.2 1022.2 5.8 SW 7.4 SSW 0.0 0.1
01:50 18.0 80.0 1022.2 7.4 SW 9.5 SSW 0.0 0.1
01:55 18.0 79.5 1022.2 7.6 SSW 8.8 SSW 0.0 0.1
02:00 17.9 80.0 1022.1 8.3 SSW 9.9 SSW 0.0 0.1
02:05 17.7 81.6 1022.1 9.5 SW 12.4 WSW 0.0 0.1
02:10 17.4 83.9 1022.1 11.9 SW 14.1 WSW 0.0 0.1
02:15 17.3 85.7 1022.0 10.4 SW 13.4 SW 0.0 0.1
02:20 17.1 87.4 1022.0 10.8 SW 13.1 SW 0.0 0.1
02:25 16.9 88.9 1022.0 10.0 SSW 12.4 SSW 0.0 0.1
02:30 16.8 90.4 1021.9 11.4 SSW 14.1 SSW 0.0 0.1
02:35 16.6 90.8 1021.9 12.7 SW 14.8 SW 0.0 0.1
02:40 16.5 90.7 1021.8 12.1 SW 14.5 SW 0.0 0.1
02:45 16.4 91.1 1021.8 12.1 SSW 14.5 SW 0.0 0.1
02:50 16.3 91.8 1021.7 13.6 SW 16.2 SW 0.0 0.1
02:55 16.3 92.6 1021.7 12.6 SW 15.2 SW 0.0 0.1
03:00 16.2 93.6 1021.7 13.3 SW 14.8 SSW 0.0 0.1
03:05 16.2 94.3 1021.7 12.7 SSW 17.0 SW 0.0 0.1
03:10 16.1 94.8 1021.7 13.0 SW 15.9 SSW 0.0 0.1
03:15 16.0 95.2 1021.7 12.8 SW 16.2 SW 0.0 0.1
03:20 16.0 95.5 1021.8 10.2 SW 12.7 SSW 0.0 0.1
03:25 16.0 95.7 1021.8 9.3 SSW 11.0 SSW 0.0 0.1
03:30 15.9 95.7 1021.8 9.1 SW 10.3 SW 0.0 0.1
03:35 16.0 95.6 1021.8 7.4 SSW 8.8 SW 0.0 0.1
03:40 16.1 94.9 1021.7 9.4 SW 11.7 SW 0.0 0.1
03:45 16.2 93.3 1021.7 10.9 SW 12.4 SW 0.0 0.1
03:50 16.1 93.2 1021.7 11.1 SW 13.4 SW 0.0 0.1
03:55 15.9 94.1 1021.7 11.5 SW 15.2 SW 0.0 0.1
04:00 15.7 94.9 1021.8 12.4 SW 15.5 SW 0.0 0.1
04:05 15.6 95.2 1021.8 10.7 SW 13.4 SW 0.0 0.2
04:10 15.7 95.2 1021.7 10.8 SW 12.7 SW 0.0 0.4
04:15 15.8 95.0 1021.7 10.6 SW 13.1 SW 0.0 0.8
04:20 15.9 95.1 1021.7 10.0 SSW 13.4 SSW 0.0 1.6
04:25 15.8 95.3 1021.7 10.5 SSW 13.8 SSW 0.0 3.2
04:30 15.9 95.2 1021.7 10.9 SW 14.5 SSW 0.0 4.8
04:35 15.8 94.6 1021.7 9.6 SW 12.4 SSW 0.0 6.1
04:40 15.7 94.9 1021.7 9.3 SSW 11.0 SSW 0.0 7.4
04:45 15.7 95.3 1021.8 9.0 SSW 10.6 SSW 0.0 8.7
04:50 15.6 95.5 1021.8 9.6 SSW 11.3 SSW 0.0 11.0
04:55 15.6 95.6 1021.9 9.6 SW 11.3 SW 0.0 14.9
05:00 15.6 95.8 1021.9 9.0 SW 11.7 SW 0.0 38.2
05:05 15.7 95.8 1022.0 8.9 SW 12.0 SSW 0.0 34.4
05:10 15.8 95.6 1022.0 8.3 SSW 11.0 SSW 0.0 38.1
05:15 15.9 95.4 1022.0 8.5 SSW 11.7 SSW 0.0 42.9
05:20 15.9 95.3 1022.0 8.8 SW 12.4 SSW 0.0 51.4
05:25 15.8 95.3 1022.1 10.3 SW 13.1 SW 0.0 63.9
05:30 15.8 95.4 1022.1 10.3 SW 12.7 SW 0.0 77.1
05:35 15.7 95.4 1022.1 9.5 SW 11.7 SW 0.0 85.6
05:40 15.8 95.3 1022.2 8.0 SW 10.6 SW 0.0 89.7
05:45 15.9 94.7 1022.2 6.7 SSW 8.5 SSW 0.0 168.1
05:50 16.0 93.7 1022.2 7.2 SW 8.8 SW 0.0 212.0
05:55 16.3 92.4 1022.2 6.4 SSW 9.2 SSW 0.0 214.7
06:00 16.5 90.7 1022.2 6.5 SSW 8.1 SSW 0.0 216.1
06:05 16.5 90.9 1022.3 8.4 SSW 10.3 SW 0.0 229.3
06:10 16.4 91.4 1022.3 9.3 SSW 11.7 SSW 0.0 237.6
06:15 16.4 91.2 1022.3 8.3 SW 9.9 SSW 0.0 252.1
06:20 16.6 91.7 1022.3 7.1 SW 8.1 SSW 0.0 261.4
06:25 16.7 91.4 1022.3 9.0 SW 10.6 SW 0.0 275.1
06:30 16.9 89.8 1022.3 7.7 SSW 9.2 SW 0.0 294.3
06:35 17.2 88.8 1022.4 7.4 SSW 9.2 SSW 0.0 315.1
06:40 17.3 87.0 1022.4 8.1 SSW 9.5 SSW 0.0 336.3
06:45 17.6 85.8 1022.4 7.8 SSW 9.2 SSW 0.0 352.7
06:50 17.8 84.7 1022.4 8.8 SSW 11.0 SSW 0.0 354.3
06:55 17.9 85.4 1022.5 9.1 SSW 11.3 SSW 0.0 371.3
07:00 17.8 85.1 1022.5 8.1 SSW 9.9 SSW 0.0 390.1
07:05 18.0 84.4 1022.6 6.9 SSW 8.5 SW 0.0 405.7
07:10 18.3 82.6 1022.6 6.9 SSW 9.5 SSW 0.0 420.9
07:15 18.6 81.8 1022.6 6.2 SSW 8.5 SSW 0.0 433.9
07:20 19.1 79.5 1022.7 4.9 SSW 7.4 SW 0.0 452.5
07:25 19.7 74.5 1022.7 4.6 SSW 6.7 SSW 0.0 467.3
07:30 20.1 71.7 1022.8 6.1 SW 8.1 SW 0.0 490.9
07:35 20.3 71.8 1022.8 5.6 SW 7.4 SW 0.0 536.9
07:40 20.5 72.1 1022.8 6.2 SW 8.5 SW 0.0 536.4
07:45 20.7 71.8 1022.9 5.9 SW 9.5 SW 0.0 559.3
07:50 21.1 69.8 1022.9 4.6 SW 8.1 SSW 0.0 602.0
07:55 21.7 64.1 1022.9 6.2 SW 10.3 WSW 0.0 595.6
Máxima 21.9 95.8 1022.9 13.6 SW 17.0 SW 0.0 602.0
Mínima 15.6 64.1 1021.7
Total 0.0